createdAt,value
2019-02-22T00:00:09.887Z,69.83
2019-02-22T00:02:39.602Z,59.23
2019-02-22T00:05:08.071Z,70.07
2019-02-22T00:07:36.277Z,71.70
2019-02-22T00:10:07.125Z,65.77
2019-02-22T00:12:35.194Z,77.07
2019-02-22T00:15:03.646Z,76.30
2019-02-22T00:17:31.730Z,75.13
2019-02-22T00:19:59.883Z,78.37
2019-02-22T00:22:27.991Z,70.97
2019-02-22T00:24:56.055Z,76.13
2019-02-22T00:27:24.344Z,67.27
2019-02-22T00:29:52.496Z,72.80
2019-02-22T00:32:20.588Z,63.53
2019-02-22T00:34:49.060Z,58.00
2019-02-22T00:37:17.141Z,70.67
2019-02-22T00:43:40.779Z,67.63
2019-02-22T00:46:09.244Z,69.47
2019-02-22T00:48:37.719Z,67.23
2019-02-22T00:51:05.817Z,64.00
2019-02-22T00:53:33.867Z,77.27
2019-02-22T00:56:02.443Z,71.40
2019-02-22T00:58:30.590Z,60.90
2019-02-22T01:00:58.679Z,71.17
2019-02-22T01:03:26.741Z,67.63
2019-02-22T01:05:54.881Z,66.23
2019-02-22T01:08:22.991Z,76.93
2019-02-22T01:10:51.147Z,72.53
2019-02-22T01:13:19.240Z,77.63
2019-02-22T01:15:47.286Z,70.97
2019-02-22T01:18:15.582Z,67.23
2019-02-22T01:20:54.051Z,73.67
2019-02-22T01:23:14.547Z,72.93
2019-02-22T01:25:43.123Z,64.63
2019-02-22T01:28:11.227Z,63.70
2019-02-22T01:30:39.655Z,74.03
2019-02-22T01:33:07.954Z,78.10
2019-02-22T01:35:36.242Z,64.87
2019-02-22T01:38:04.450Z,51.60
2019-02-22T01:40:43.212Z,59.60
2019-02-22T01:43:02.760Z,55.40
2019-02-22T01:45:30.931Z,58.03
2019-02-22T01:48:00.274Z,54.00
2019-02-22T01:50:29.350Z,46.80
2019-02-22T01:52:57.425Z,47.67
2019-02-22T01:55:25.517Z,49.67
2019-02-22T01:57:54.140Z,55.67
2019-02-22T02:00:22.450Z,43.47
2019-02-22T02:02:50.822Z,51.43
2019-02-22T02:05:19.164Z,43.43
2019-02-22T02:07:47.888Z,35.73
2019-02-22T02:10:16.082Z,47.47
2019-02-22T02:12:44.238Z,40.23
2019-02-22T02:15:12.458Z,42.33
2019-02-22T02:17:41.027Z,42.47
2019-02-22T02:20:09.980Z,41.63
2019-02-22T02:22:38.127Z,50.50
2019-02-22T02:25:08.041Z,49.50
2019-02-22T02:27:36.297Z,42.00
2019-02-22T02:30:05.342Z,43.37
2019-02-22T02:32:33.370Z,49.70
2019-02-22T02:35:01.530Z,45.53
2019-02-22T02:37:29.700Z,39.03
2019-02-22T02:39:57.951Z,41.87
2019-02-22T02:42:26.064Z,37.77
2019-02-22T02:44:54.227Z,38.00
2019-02-22T02:47:23.043Z,41.90
2019-02-22T02:49:51.149Z,42.87
2019-02-22T02:52:19.678Z,41.63
2019-02-22T02:54:47.764Z,42.03
2019-02-22T02:57:15.877Z,36.63
2019-02-22T02:59:43.949Z,42.70
2019-02-22T03:02:22.291Z,44.80
2019-02-22T03:04:50.347Z,48.20
2019-02-22T03:07:40.851Z,41.77
2019-02-22T03:10:09.135Z,42.73
2019-02-22T03:12:37.331Z,40.13
2019-02-22T03:15:08.029Z,41.70
2019-02-22T03:17:36.754Z,42.03
2019-02-22T03:20:05.333Z,41.37
2019-02-22T03:22:33.505Z,34.00
2019-02-22T03:25:01.777Z,41.63
2019-02-22T03:27:30.003Z,38.13
2019-02-22T03:29:58.175Z,39.70
2019-02-22T03:32:26.436Z,38.70
2019-02-22T03:34:54.979Z,35.80
2019-02-22T03:37:24.135Z,33.87
2019-02-22T03:39:52.456Z,37.07
2019-02-22T03:42:20.755Z,35.47
2019-02-22T03:44:51.917Z,32.57
2019-02-22T03:47:20.073Z,37.60
2019-02-22T03:49:49.154Z,33.97
2019-02-22T03:52:39.666Z,33.27
2019-02-22T03:55:07.975Z,32.43
2019-02-22T03:57:37.276Z,29.97
2019-02-22T04:00:06.651Z,39.07
2019-02-22T04:02:35.009Z,27.57
2019-02-22T04:05:03.566Z,32.37
2019-02-22T04:07:31.729Z,31.40
2019-02-22T04:10:00.033Z,38.97
2019-02-22T04:12:28.426Z,34.73
2019-02-22T04:14:56.608Z,30.90
2019-02-22T04:17:24.881Z,33.57
2019-02-22T04:19:53.070Z,31.30
2019-02-22T04:22:21.112Z,31.93
2019-02-22T04:24:50.349Z,32.47
2019-02-22T04:27:18.935Z,33.80
2019-02-22T04:29:47.039Z,29.63
2019-02-22T04:32:15.485Z,33.60
2019-02-22T04:34:44.199Z,35.77
2019-02-22T04:37:12.340Z,28.77
2019-02-22T04:39:41.022Z,30.97
2019-02-22T04:42:09.251Z,29.80
2019-02-22T04:44:37.523Z,29.80
2019-02-22T04:47:05.614Z,27.37
2019-02-22T04:49:34.237Z,31.87
2019-02-22T04:52:02.298Z,25.20
2019-02-22T04:54:30.355Z,26.73
2019-02-22T04:56:58.850Z,27.40
2019-02-22T04:59:26.940Z,24.90
2019-02-22T05:01:55.200Z,28.90
2019-02-22T05:04:23.425Z,22.97
2019-02-22T05:06:52.108Z,23.83
2019-02-22T05:09:20.381Z,23.57
2019-02-22T05:11:48.624Z,26.47
2019-02-22T05:14:16.778Z,23.90
2019-02-22T05:16:44.847Z,25.40
2019-02-22T05:19:12.999Z,20.50
2019-02-22T05:21:41.594Z,27.27
2019-02-22T05:24:09.682Z,21.03
2019-02-22T05:26:38.248Z,21.03
2019-02-22T05:29:06.460Z,23.10
2019-02-22T05:31:35.038Z,21.30
2019-02-22T05:34:03.213Z,20.10
2019-02-22T05:36:31.246Z,21.43
2019-02-22T05:38:59.518Z,18.03
2019-02-22T05:41:32.163Z,23.93
2019-02-22T05:44:00.377Z,23.20
2019-02-22T05:46:29.238Z,23.07
2019-02-22T05:48:57.366Z,20.13
2019-02-22T05:51:25.459Z,20.57
2019-02-22T05:53:53.605Z,23.70
2019-02-22T05:56:21.681Z,21.80
2019-02-22T05:58:49.770Z,22.87
2019-02-22T06:01:19.290Z,21.37
2019-02-22T06:03:47.514Z,23.20
2019-02-22T06:06:15.743Z,25.47
2019-02-22T06:08:43.796Z,24.80
2019-02-22T06:11:12.591Z,22.43
2019-02-22T06:13:40.659Z,22.33
2019-02-22T06:16:08.773Z,22.83
2019-02-22T06:18:36.875Z,22.33
2019-02-22T06:21:05.130Z,26.33
2019-02-22T06:23:33.207Z,29.90
2019-02-22T06:26:01.946Z,25.80
2019-02-22T06:28:31.911Z,25.00
2019-02-22T06:30:59.976Z,26.87
2019-02-22T06:33:28.327Z,29.03
2019-02-22T06:35:56.452Z,25.80
2019-02-22T06:38:25.043Z,28.23
2019-02-22T06:40:53.194Z,25.57
2019-02-22T06:43:21.643Z,27.83
2019-02-22T06:45:49.802Z,24.73
2019-02-22T06:48:17.908Z,26.73
2019-02-22T06:50:46.012Z,29.80
2019-02-22T06:53:15.134Z,26.57
2019-02-22T06:55:43.315Z,34.13
2019-02-22T06:58:11.884Z,26.50
2019-02-22T07:00:40.033Z,26.83
2019-02-22T07:03:08.108Z,30.03
2019-02-22T07:05:37.033Z,28.60
2019-02-22T07:08:05.097Z,37.33
2019-02-22T07:10:52.979Z,34.33
2019-02-22T07:13:21.109Z,34.70
2019-02-22T07:15:49.395Z,32.40
2019-02-22T07:18:17.566Z,31.97
2019-02-22T07:20:46.383Z,32.97
2019-02-22T07:23:14.469Z,29.10
2019-02-22T07:25:42.589Z,34.77
2019-02-22T07:28:10.737Z,34.80
2019-02-22T07:30:38.843Z,40.90
2019-02-22T07:33:07.127Z,40.83
2019-02-22T07:35:35.340Z,38.97
2019-02-22T07:38:03.419Z,41.17
2019-02-22T07:40:31.593Z,43.70
2019-02-22T07:43:07.707Z,40.07
2019-02-22T07:45:29.767Z,41.83
2019-02-22T07:47:57.919Z,45.43
2019-02-22T07:50:26.079Z,41.57
2019-02-22T07:52:54.297Z,46.63
2019-02-22T07:55:22.429Z,39.37
2019-02-22T07:57:50.559Z,41.70
2019-02-22T08:00:18.651Z,41.10
2019-02-22T08:02:47.563Z,43.53
2019-02-22T08:05:15.803Z,45.13
2019-02-22T08:07:44.210Z,44.30
2019-02-22T08:10:12.413Z,43.50
2019-02-22T08:12:40.690Z,46.07
2019-02-22T08:15:10.572Z,45.33
2019-02-22T08:17:38.860Z,43.87
2019-02-22T08:20:07.671Z,46.87
2019-02-22T08:22:35.962Z,42.80
2019-02-22T08:25:04.267Z,43.57
2019-02-22T08:27:32.497Z,48.13
2019-02-22T08:30:00.831Z,55.17
2019-02-22T08:32:28.944Z,54.07
2019-02-22T08:34:57.097Z,50.33
2019-02-22T08:37:25.224Z,56.63
2019-02-22T08:39:58.640Z,51.53
2019-02-22T08:42:25.617Z,54.77
2019-02-22T08:44:54.047Z,46.83
2019-02-22T08:47:22.287Z,50.17
2019-02-22T08:49:50.432Z,52.43
2019-02-22T08:52:18.693Z,51.17
2019-02-22T08:54:47.520Z,52.37
2019-02-22T08:57:16.186Z,48.40
2019-02-22T08:59:44.325Z,41.60
2019-02-22T09:02:13.110Z,39.30
2019-02-22T09:04:41.518Z,31.87
2019-02-22T09:07:10.840Z,31.87
2019-02-22T09:09:39.293Z,29.53
2019-02-22T09:12:07.661Z,34.97
2019-02-22T09:14:36.156Z,34.27
2019-02-22T09:17:04.871Z,34.30
2019-02-22T09:19:33.370Z,33.63
2019-02-22T09:22:02.335Z,40.47
2019-02-22T09:24:31.388Z,34.50
2019-02-22T09:26:59.554Z,33.37
2019-02-22T09:29:27.679Z,31.77
2019-02-22T09:31:55.922Z,29.07
2019-02-22T09:34:24.470Z,21.17
2019-02-22T09:36:53.388Z,20.53
2019-02-22T09:39:21.823Z,17.70
2019-02-22T09:41:49.989Z,17.37
2019-02-22T09:44:18.890Z,14.27
2019-02-22T09:46:48.059Z,11.90
2019-02-22T09:49:16.304Z,15.63
2019-02-22T09:51:44.498Z,10.10
2019-02-22T09:54:12.697Z,14.03
2019-02-22T09:56:41.841Z,14.33
2019-02-22T09:59:09.914Z,13.23
2019-02-22T10:01:38.102Z,16.80
2019-02-22T10:04:06.616Z,18.33
2019-02-22T10:06:34.735Z,16.53
2019-02-22T10:09:05.768Z,18.87
2019-02-22T10:11:34.058Z,17.93
2019-02-22T10:14:06.602Z,19.77
2019-02-22T10:16:33.887Z,22.17
2019-02-22T10:19:02.030Z,20.13
2019-02-22T10:21:30.402Z,20.97
2019-02-22T10:23:58.498Z,20.30
2019-02-22T10:26:26.570Z,18.83
2019-02-22T10:28:54.678Z,19.47
2019-02-22T10:31:23.003Z,15.37
2019-02-22T10:33:51.088Z,12.97
2019-02-22T10:36:19.846Z,12.43
2019-02-22T10:38:48.283Z,13.47
2019-02-22T10:41:16.743Z,11.97
2019-02-22T10:43:45.003Z,13.00
2019-02-22T10:46:13.037Z,11.83
2019-02-22T10:48:41.164Z,12.73
2019-02-22T10:51:09.230Z,12.67
2019-02-22T10:53:37.325Z,11.63
2019-02-22T10:56:05.495Z,12.03
2019-02-22T10:58:33.740Z,10.83
2019-02-22T11:01:02.117Z,12.53
2019-02-22T11:03:30.611Z,10.90
2019-02-22T11:05:58.697Z,10.77
2019-02-22T11:08:27.305Z,12.27
2019-02-22T11:10:55.493Z,10.80
2019-02-22T11:13:25.420Z,9.47
2019-02-22T11:15:53.702Z,9.70
2019-02-22T11:18:21.937Z,9.17
2019-02-22T11:20:51.622Z,9.23
2019-02-22T11:23:19.844Z,8.50
2019-02-22T11:25:48.069Z,10.20
2019-02-22T11:28:16.557Z,9.53
2019-02-22T11:30:45.060Z,7.80
2019-02-22T11:33:13.216Z,6.93
2019-02-22T11:35:41.429Z,7.93
2019-02-22T11:38:09.486Z,6.53
2019-02-22T11:40:37.690Z,5.53
2019-02-22T11:43:05.875Z,6.17
2019-02-22T11:45:34.123Z,7.73
2019-02-22T11:48:09.234Z,8.50
2019-02-22T11:50:32.254Z,7.63
2019-02-22T11:53:02.123Z,9.20
2019-02-22T11:55:30.726Z,7.67
2019-02-22T11:57:58.890Z,6.67
2019-02-22T12:00:29.096Z,5.77
2019-02-22T12:02:57.184Z,6.10
2019-02-22T12:05:25.396Z,9.47
2019-02-22T12:07:53.787Z,8.00
2019-02-22T12:10:22.448Z,7.40
2019-02-22T12:12:50.874Z,6.63
2019-02-22T12:15:19.014Z,8.70
2019-02-22T12:17:47.082Z,5.43
2019-02-22T12:20:15.700Z,6.17
2019-02-22T12:22:43.992Z,6.73
2019-02-22T12:25:12.201Z,5.43
2019-02-22T12:27:40.282Z,6.30
2019-02-22T12:30:11.426Z,5.83
2019-02-22T12:32:39.783Z,7.37
2019-02-22T12:35:08.130Z,5.63
2019-02-22T12:37:36.215Z,8.03
2019-02-22T12:40:05.210Z,6.40
2019-02-22T12:42:33.531Z,7.67
2019-02-22T12:45:04.046Z,6.53
2019-02-22T12:47:32.184Z,6.40
2019-02-22T12:50:00.360Z,6.57
2019-02-22T12:52:28.528Z,5.63
2019-02-22T12:54:56.611Z,7.03
2019-02-22T12:57:24.734Z,5.60
2019-02-22T12:59:52.951Z,4.80
2019-02-22T13:02:21.163Z,5.97
2019-02-22T13:04:49.269Z,7.10
2019-02-22T13:07:17.389Z,5.43
2019-02-22T13:09:45.573Z,6.57
2019-02-22T13:12:16.527Z,6.07
2019-02-22T13:14:43.900Z,6.53
2019-02-22T13:17:12.023Z,6.90
2019-02-22T13:19:40.098Z,6.03
2019-02-22T13:22:08.473Z,6.67
2019-02-22T13:24:36.593Z,5.93
2019-02-22T13:27:04.829Z,6.00
2019-02-22T13:29:33.716Z,5.30
2019-02-22T13:32:01.835Z,5.03
2019-02-22T13:34:29.895Z,8.60
2019-02-22T13:36:58.393Z,5.10
2019-02-22T13:39:26.682Z,7.17
2019-02-22T13:41:54.834Z,6.97
2019-02-22T13:44:23.219Z,5.00
2019-02-22T13:46:51.634Z,5.37
2019-02-22T13:49:19.885Z,4.87
2019-02-22T13:51:48.096Z,5.80
2019-02-22T13:54:16.279Z,4.77
2019-02-22T13:56:44.440Z,5.77
2019-02-22T13:59:12.542Z,5.70
2019-02-22T14:01:40.670Z,9.07
2019-02-22T14:04:08.883Z,5.77
2019-02-22T14:06:36.950Z,5.80
2019-02-22T14:09:06.256Z,4.63
2019-02-22T14:11:34.500Z,5.40
2019-02-22T14:14:02.695Z,7.53
2019-02-22T14:16:30.773Z,5.77
2019-02-22T14:18:58.885Z,6.63
2019-02-22T14:21:27.282Z,6.50
2019-02-22T14:23:56.138Z,4.80
2019-02-22T14:26:24.530Z,5.37
2019-02-22T14:28:52.628Z,4.33
2019-02-22T14:31:20.761Z,6.93
2019-02-22T14:33:48.808Z,4.07
2019-02-22T14:36:17.085Z,4.67
2019-02-22T14:38:45.552Z,5.70
2019-02-22T14:41:13.827Z,4.40
2019-02-22T14:43:41.900Z,4.37
2019-02-22T14:46:10.112Z,4.87
2019-02-22T14:48:38.196Z,4.23
2019-02-22T14:51:06.777Z,4.40
2019-02-22T14:53:34.835Z,4.93
2019-02-22T14:56:02.934Z,5.70
2019-02-22T14:58:30.988Z,3.93
2019-02-22T15:00:59.113Z,4.20
2019-02-22T15:03:27.533Z,3.73
2019-02-22T15:05:55.658Z,5.97
2019-02-22T15:08:24.032Z,3.50
2019-02-22T15:10:52.574Z,5.23
2019-02-22T15:13:20.881Z,4.47
2019-02-22T15:16:07.483Z,3.80
2019-02-22T15:18:35.573Z,4.87
2019-02-22T15:21:03.746Z,3.40
2019-02-22T15:23:31.789Z,3.27
2019-02-22T15:25:59.979Z,3.83
2019-02-22T15:28:28.154Z,4.50
2019-02-22T15:30:56.583Z,5.77
2019-02-22T15:33:24.739Z,5.80
2019-02-22T15:35:53.113Z,6.63
2019-02-22T15:38:21.513Z,4.30
2019-02-22T15:40:49.579Z,3.67
2019-02-22T15:43:17.999Z,3.30
2019-02-22T15:45:47.127Z,3.80
2019-02-22T15:48:16.922Z,4.00
2019-02-22T15:50:45.046Z,3.20
2019-02-22T15:53:13.701Z,4.50
2019-02-22T15:55:41.752Z,3.37
2019-02-22T15:58:09.907Z,3.13
2019-02-22T16:00:37.934Z,4.10
2019-02-22T16:03:06.315Z,4.63
2019-02-22T16:05:40.265Z,3.70
2019-02-22T16:08:10.386Z,3.90
2019-02-22T16:10:40.650Z,6.10
2019-02-22T16:13:10.078Z,3.67
2019-02-22T16:15:40.598Z,6.33
2019-02-22T16:18:09.059Z,4.47
2019-02-22T16:20:37.629Z,5.33
2019-02-22T16:23:05.806Z,4.23
2019-02-22T16:25:34.340Z,4.67
2019-02-22T16:28:02.463Z,4.73
2019-02-22T16:30:32.562Z,5.93
2019-02-22T16:33:00.666Z,6.47
2019-02-22T16:35:29.041Z,5.00
2019-02-22T16:37:57.395Z,7.90
2019-02-22T16:40:25.567Z,3.77
2019-02-22T16:42:53.964Z,4.77
2019-02-22T16:45:22.687Z,4.83
2019-02-22T16:47:50.843Z,4.67
2019-02-22T16:50:19.839Z,7.80
2019-02-22T16:52:48.085Z,5.47
2019-02-22T16:55:16.266Z,4.80
2019-02-22T16:57:44.362Z,4.67
2019-02-22T17:00:13.207Z,7.27
2019-02-22T17:02:41.547Z,3.80
2019-02-22T17:05:12.050Z,5.90
2019-02-22T17:07:40.549Z,5.77
2019-02-22T17:10:09.645Z,5.63
2019-02-22T17:12:38.182Z,4.67
2019-02-22T17:15:11.196Z,3.72
2019-02-22T17:17:39.252Z,4.87
2019-02-22T17:20:09.625Z,4.07
2019-02-22T17:22:37.685Z,6.17
2019-02-22T17:25:08.293Z,4.97
2019-02-22T17:27:36.383Z,6.60
2019-02-22T17:30:05.931Z,3.80
2019-02-22T17:32:34.343Z,4.83
2019-02-22T17:35:02.912Z,10.13
2019-02-22T17:37:31.080Z,7.53
2019-02-22T17:39:59.156Z,9.40
2019-02-22T17:42:27.638Z,3.97
2019-02-22T17:44:56.131Z,8.77
2019-02-22T17:47:24.501Z,5.83
2019-02-22T17:49:52.622Z,11.77
2019-02-22T17:52:20.749Z,5.30
2019-02-22T17:54:48.931Z,5.73
2019-02-22T17:57:17.530Z,6.30
2019-02-22T17:59:45.671Z,6.00
2019-02-22T18:02:13.962Z,7.33
2019-02-22T18:04:42.065Z,5.13
2019-02-22T18:07:10.138Z,4.13
2019-02-22T18:09:38.450Z,5.67
2019-02-22T18:12:07.668Z,6.63
2019-02-22T18:14:35.846Z,6.50
2019-02-22T18:17:08.474Z,6.93
2019-02-22T18:19:34.957Z,3.83
2019-02-22T18:22:03.099Z,5.63
2019-02-22T18:24:31.351Z,5.27
2019-02-22T18:26:59.596Z,13.37
2019-02-22T18:29:35.036Z,6.73
2019-02-22T18:31:58.185Z,8.03
2019-02-22T18:34:26.399Z,5.90
2019-02-22T18:36:54.489Z,10.80
2019-02-22T18:39:22.676Z,14.63
2019-02-22T18:41:50.751Z,17.27
2019-02-22T18:44:19.320Z,7.23
2019-02-22T18:46:47.552Z,7.73
2019-02-22T18:49:16.152Z,5.07
2019-02-22T18:51:44.308Z,6.37
2019-02-22T18:54:12.490Z,5.43
2019-02-22T18:56:42.051Z,6.33
2019-02-22T18:59:11.060Z,5.47
2019-02-22T19:01:39.312Z,5.57
2019-02-22T19:04:07.474Z,6.87
2019-02-22T19:06:35.568Z,5.70
2019-02-22T19:09:05.478Z,7.53
2019-02-22T19:11:34.075Z,6.37
2019-02-22T19:14:02.170Z,8.10
2019-02-22T19:16:30.642Z,6.93
2019-02-22T19:18:58.773Z,7.43
2019-02-22T19:21:26.833Z,7.13
2019-02-22T19:23:54.974Z,11.07
2019-02-22T19:26:23.254Z,8.60
2019-02-22T19:28:51.799Z,6.97
2019-02-22T19:31:20.119Z,7.40
2019-02-22T19:33:49.906Z,8.53
2019-02-22T19:36:18.344Z,11.60
2019-02-22T19:38:47.067Z,10.90
2019-02-22T19:41:15.419Z,12.90
2019-02-22T19:43:43.849Z,12.23
2019-02-22T19:46:12.072Z,8.97
2019-02-22T19:48:41.000Z,9.07
2019-02-22T19:51:09.230Z,8.97
2019-02-22T19:53:38.118Z,6.63
2019-02-22T19:56:06.790Z,7.97
2019-02-22T19:58:35.244Z,9.33
2019-02-22T20:01:04.149Z,18.50
2019-02-22T20:03:32.479Z,7.97
2019-02-22T20:06:01.266Z,6.70
2019-02-22T20:08:30.263Z,7.00
2019-02-22T20:10:58.729Z,12.97
2019-02-22T20:13:27.209Z,6.83
2019-02-22T20:15:55.613Z,7.93
2019-02-22T20:18:24.311Z,6.93
2019-02-22T20:20:52.921Z,8.10
2019-02-22T20:23:21.301Z,7.20
2019-02-22T20:25:49.693Z,8.33
2019-02-22T20:28:18.020Z,8.40
2019-02-22T20:30:46.574Z,7.53
2019-02-22T20:33:14.906Z,8.13
2019-02-22T20:35:43.401Z,8.60
2019-02-22T20:38:11.780Z,11.87
2019-02-22T20:40:40.649Z,6.73
2019-02-22T20:43:09.173Z,7.97
2019-02-22T20:45:37.619Z,9.17
2019-02-22T20:48:06.224Z,10.50
2019-02-22T20:50:34.536Z,9.00
2019-02-22T20:53:03.367Z,9.00
2019-02-22T20:55:31.872Z,8.83
2019-02-22T20:58:01.656Z,8.40
2019-02-22T21:00:29.949Z,8.80
2019-02-22T21:02:58.240Z,7.60
2019-02-22T21:05:26.581Z,9.07
2019-02-22T21:07:54.828Z,10.03
2019-02-22T21:10:23.381Z,7.23
2019-02-22T21:12:51.653Z,9.93
2019-02-22T21:15:21.367Z,10.90
2019-02-22T21:17:51.314Z,10.73
2019-02-22T21:20:19.473Z,10.40
2019-02-22T21:22:47.562Z,9.60
2019-02-22T21:25:15.644Z,8.07
2019-02-22T21:27:43.765Z,8.10
2019-02-22T21:30:13.070Z,7.23
2019-02-22T21:32:41.352Z,8.70
2019-02-22T21:35:09.787Z,7.83
2019-02-22T21:37:37.931Z,6.60
2019-02-22T21:40:08.230Z,10.40
2019-02-22T21:42:36.337Z,10.23
2019-02-22T21:45:04.594Z,11.60
2019-02-22T21:47:32.678Z,10.93
2019-02-22T21:50:01.155Z,9.10
2019-02-22T21:52:29.449Z,7.87
2019-02-22T21:54:57.562Z,8.73
2019-02-22T21:57:25.676Z,8.57
2019-02-22T21:59:53.798Z,6.47
2019-02-22T22:02:22.278Z,8.07
2019-02-22T22:04:50.385Z,8.07
2019-02-22T22:07:20.501Z,7.70
2019-02-22T22:09:50.338Z,8.50
2019-02-22T22:12:18.485Z,9.73
2019-02-22T22:14:46.574Z,9.17
2019-02-22T22:17:14.691Z,8.47
2019-02-22T22:19:42.791Z,8.43
2019-02-22T22:22:11.435Z,9.37
2019-02-22T22:24:39.556Z,10.23
2019-02-22T22:27:08.986Z,13.20
2019-02-22T22:29:37.735Z,8.37
2019-02-22T22:32:05.775Z,10.77
2019-02-22T22:34:34.048Z,9.10
2019-02-22T22:37:02.394Z,9.27
2019-02-22T22:39:30.899Z,8.57
2019-02-22T22:41:59.588Z,9.57
2019-02-22T22:44:27.754Z,9.87
2019-02-22T22:46:55.952Z,9.33
2019-02-22T22:49:24.065Z,9.90
2019-02-22T22:51:53.302Z,10.50
2019-02-22T22:54:21.354Z,14.03
2019-02-22T22:56:50.518Z,10.97
2019-02-22T22:59:18.654Z,9.03
2019-02-22T23:01:47.427Z,11.93
2019-02-22T23:04:15.482Z,10.17
2019-02-22T23:06:44.582Z,13.70
2019-02-22T23:09:21.164Z,11.73
2019-02-22T23:11:49.664Z,10.43
2019-02-22T23:14:17.801Z,9.67
2019-02-22T23:16:46.007Z,10.73
2019-02-22T23:19:14.187Z,12.53
2019-02-22T23:21:42.255Z,12.13
2019-02-22T23:24:11.856Z,11.33
2019-02-22T23:26:39.947Z,10.00
2019-02-22T23:29:08.067Z,12.60
2019-02-22T23:31:36.141Z,12.17
2019-02-22T23:34:04.222Z,13.17
2019-02-22T23:36:32.401Z,11.80
2019-02-22T23:39:00.859Z,9.37
2019-02-22T23:41:28.942Z,11.10
2019-02-22T23:43:57.346Z,11.53
2019-02-22T23:46:25.422Z,11.87
2019-02-22T23:48:53.590Z,11.50
2019-02-22T23:51:21.680Z,12.97
2019-02-22T23:53:49.898Z,12.23
2019-02-22T23:56:18.249Z,13.43
2019-02-22T23:58:46.349Z,12.77
